createdAt,value
2023-03-18T00:00:10.304Z,5.05
2023-03-18T00:02:55.980Z,4.80
2023-03-18T00:05:42.166Z,4.50
2023-03-18T00:08:27.370Z,4.70
2023-03-18T00:11:14.631Z,4.38
2023-03-18T00:14:00.267Z,4.53
2023-03-18T00:16:46.109Z,4.57
2023-03-18T00:19:33.780Z,4.18
2023-03-18T00:22:19.414Z,4.50
2023-03-18T00:25:07.169Z,5.65
2023-03-18T00:27:52.951Z,4.35
2023-03-18T00:30:40.036Z,4.70
2023-03-18T00:33:25.820Z,5.00
2023-03-18T00:36:13.916Z,4.72
2023-03-18T00:39:03.178Z,5.80
2023-03-18T00:41:48.645Z,5.60
2023-03-18T00:44:34.017Z,5.43
2023-03-18T00:47:19.529Z,5.07
2023-03-18T00:50:07.367Z,4.30
2023-03-18T00:52:52.885Z,4.72
2023-03-18T00:55:39.437Z,4.13
2023-03-18T00:58:25.756Z,4.18
2023-03-18T01:01:13.822Z,4.15
2023-03-18T01:04:00.248Z,4.30
2023-03-18T01:06:46.568Z,5.95
2023-03-18T01:09:32.207Z,4.50
2023-03-18T01:12:17.696Z,4.10
2023-03-18T01:15:05.089Z,4.35
2023-03-18T01:17:52.369Z,4.60
2023-03-18T01:20:39.117Z,4.82
2023-03-18T01:23:25.145Z,4.43
2023-03-18T01:26:10.874Z,4.10
2023-03-18T01:28:57.056Z,4.05
2023-03-18T01:31:43.436Z,4.10
2023-03-18T01:34:28.972Z,4.13
2023-03-18T01:37:14.355Z,4.43
2023-03-18T01:40:00.880Z,4.10
2023-03-18T01:42:56.705Z,4.15
2023-03-18T01:45:54.227Z,4.15
2023-03-18T01:48:40.161Z,3.65
2023-03-18T01:51:27.113Z,4.03
2023-03-18T01:54:14.263Z,4.28
2023-03-18T01:56:59.889Z,4.68
2023-03-18T01:59:47.919Z,4.43
2023-03-18T02:02:33.976Z,4.75
2023-03-18T02:05:28.955Z,4.28
2023-03-18T02:08:14.279Z,4.60
2023-03-18T02:11:00.571Z,4.50
2023-03-18T02:13:46.802Z,4.15
2023-03-18T02:16:40.411Z,4.15
2023-03-18T02:19:28.696Z,3.70
2023-03-18T02:22:34.253Z,4.63
2023-03-18T02:25:30.840Z,4.00
2023-03-18T02:28:24.710Z,4.20
2023-03-18T02:31:13.171Z,3.78
2023-03-18T02:33:59.956Z,3.70
2023-03-18T02:36:46.118Z,3.80
2023-03-18T02:39:31.783Z,3.90
2023-03-18T02:42:29.065Z,3.30
2023-03-18T02:45:31.533Z,3.53
2023-03-18T02:48:20.246Z,3.80
2023-03-18T02:51:07.854Z,3.80
2023-03-18T02:53:58.883Z,4.05
2023-03-18T02:56:44.634Z,4.00
2023-03-18T02:59:32.463Z,4.47
2023-03-18T03:02:18.122Z,4.30
2023-03-18T03:05:03.606Z,4.47
2023-03-18T03:07:49.226Z,4.50
2023-03-18T03:10:34.784Z,4.20
2023-03-18T03:13:22.220Z,4.10
2023-03-18T03:16:08.230Z,4.22
2023-03-18T03:18:53.462Z,4.38
2023-03-18T03:21:39.345Z,4.63
2023-03-18T03:24:24.688Z,4.30
2023-03-18T03:27:10.684Z,3.87
2023-03-18T03:29:56.459Z,4.43
2023-03-18T03:32:41.957Z,4.18
2023-03-18T03:35:27.925Z,4.38
2023-03-18T03:38:13.238Z,4.27
2023-03-18T03:40:58.711Z,4.63
2023-03-18T03:43:44.847Z,4.30
2023-03-18T03:46:31.315Z,4.23
2023-03-18T03:49:17.015Z,4.10
2023-03-18T03:52:02.223Z,3.60
2023-03-18T03:54:48.277Z,4.20
2023-03-18T03:57:35.601Z,3.63
2023-03-18T04:00:22.774Z,4.00
2023-03-18T04:03:07.966Z,3.30
2023-03-18T04:05:53.381Z,3.67
2023-03-18T04:08:38.987Z,4.00
2023-03-18T04:11:24.619Z,3.57
2023-03-18T04:14:10.374Z,3.70
2023-03-18T04:17:00.390Z,3.50
2023-03-18T04:19:45.671Z,3.30
2023-03-18T04:22:32.034Z,3.50
2023-03-18T04:25:17.746Z,3.73
2023-03-18T04:28:03.746Z,4.70
2023-03-18T04:30:49.153Z,4.40
2023-03-18T04:33:34.467Z,3.63
2023-03-18T04:36:20.076Z,3.63
2023-03-18T04:39:06.185Z,3.90
2023-03-18T04:41:51.843Z,4.13
2023-03-18T04:44:37.245Z,3.47
2023-03-18T04:47:22.805Z,4.17
2023-03-18T04:50:11.090Z,4.50
2023-03-18T04:52:57.017Z,4.20
2023-03-18T04:55:44.125Z,3.83
2023-03-18T04:58:29.921Z,3.70
2023-03-18T05:01:15.347Z,3.97
2023-03-18T05:04:01.448Z,3.60
2023-03-18T05:06:47.341Z,4.00
2023-03-18T05:09:34.308Z,4.70
2023-03-18T05:12:19.677Z,4.00
2023-03-18T05:15:06.513Z,4.27
2023-03-18T05:17:51.736Z,5.43
2023-03-18T05:20:37.344Z,5.90
2023-03-18T05:23:24.071Z,5.70
2023-03-18T05:26:11.591Z,5.03
2023-03-18T05:28:57.472Z,5.70
2023-03-18T05:31:43.852Z,5.50
2023-03-18T05:34:29.392Z,4.70
2023-03-18T05:37:16.060Z,4.70
2023-03-18T05:40:01.698Z,4.30
2023-03-18T05:42:55.915Z,4.57
2023-03-18T05:45:42.894Z,4.15
2023-03-18T05:48:28.143Z,4.13
2023-03-18T05:51:13.965Z,4.47
2023-03-18T05:53:59.410Z,4.37
2023-03-18T05:56:45.746Z,3.90
2023-03-18T05:59:31.545Z,4.17
2023-03-18T06:02:17.604Z,3.77
2023-03-18T06:05:03.145Z,4.10
2023-03-18T06:07:49.043Z,4.00
2023-03-18T06:10:34.552Z,4.53
2023-03-18T06:13:20.316Z,3.70
2023-03-18T06:16:06.357Z,3.77
2023-03-18T06:18:51.818Z,3.50
2023-03-18T06:21:37.453Z,3.23
2023-03-18T06:24:22.767Z,3.17
2023-03-18T06:27:08.930Z,3.80
2023-03-18T06:29:55.058Z,3.40
2023-03-18T06:32:41.236Z,3.50
2023-03-18T06:35:30.390Z,3.40
2023-03-18T06:38:16.854Z,3.30
2023-03-18T06:41:02.448Z,3.50
2023-03-18T06:43:50.595Z,3.40
2023-03-18T06:46:36.242Z,3.40
2023-03-18T06:49:21.905Z,3.37
2023-03-18T06:52:07.270Z,3.10
2023-03-18T06:54:53.534Z,3.37
2023-03-18T06:57:39.129Z,3.73
2023-03-18T07:00:25.142Z,3.50
2023-03-18T07:03:10.585Z,4.10
2023-03-18T07:05:56.185Z,4.10
2023-03-18T07:08:41.824Z,3.60
2023-03-18T07:11:27.547Z,3.87
2023-03-18T07:14:14.586Z,4.40
2023-03-18T07:17:00.734Z,4.00
2023-03-18T07:19:47.006Z,3.73
2023-03-18T07:22:32.698Z,4.30
2023-03-18T07:25:18.085Z,4.30
2023-03-18T07:28:05.055Z,4.67
2023-03-18T07:30:53.995Z,4.17
2023-03-18T07:33:39.907Z,3.93
2023-03-18T07:36:26.952Z,3.93
2023-03-18T07:39:13.817Z,4.00
2023-03-18T07:41:59.308Z,3.83
2023-03-18T07:44:44.773Z,4.05
2023-03-18T07:47:30.613Z,4.10
2023-03-18T07:50:16.323Z,4.15
2023-03-18T07:53:02.338Z,4.00
2023-03-18T07:55:47.661Z,3.53
2023-03-18T07:58:33.208Z,3.70
2023-03-18T08:01:19.598Z,3.60
2023-03-18T08:04:06.012Z,3.38
2023-03-18T08:06:51.257Z,3.30
2023-03-18T08:09:37.379Z,3.30
2023-03-18T08:12:22.880Z,3.28
2023-03-18T08:15:09.312Z,2.90
2023-03-18T08:17:54.949Z,3.33
2023-03-18T08:20:40.435Z,3.30
2023-03-18T08:23:26.104Z,3.20
2023-03-18T08:26:12.249Z,3.38
2023-03-18T08:28:58.065Z,2.85
2023-03-18T08:31:43.674Z,2.80
2023-03-18T08:34:29.494Z,2.60
2023-03-18T08:37:14.720Z,3.00
2023-03-18T08:40:00.371Z,2.97
2023-03-18T08:42:45.454Z,2.92
2023-03-18T08:45:31.336Z,2.90
2023-03-18T08:48:16.746Z,2.80
2023-03-18T08:51:09.362Z,2.85
2023-03-18T08:53:55.224Z,2.80
2023-03-18T08:56:40.668Z,2.47
2023-03-18T08:59:26.564Z,2.53
2023-03-18T09:02:18.480Z,2.75
2023-03-18T09:05:05.287Z,2.45
2023-03-18T09:07:51.066Z,2.75
2023-03-18T09:10:36.642Z,2.65
2023-03-18T09:13:22.938Z,2.42
2023-03-18T09:16:08.650Z,2.70
2023-03-18T09:18:54.218Z,2.40
2023-03-18T09:21:39.503Z,3.05
2023-03-18T09:24:25.242Z,2.42
2023-03-18T09:27:10.808Z,2.90
2023-03-18T09:29:56.767Z,2.95
2023-03-18T09:32:42.913Z,2.53
2023-03-18T09:35:31.834Z,2.50
2023-03-18T09:38:19.780Z,3.72
2023-03-18T09:41:11.263Z,2.10
2023-03-18T09:44:15.264Z,2.60
2023-03-18T09:47:25.528Z,2.10
2023-03-18T09:50:18.281Z,2.00
2023-03-18T09:53:34.855Z,2.10
2023-03-18T09:56:30.685Z,2.30
2023-03-18T09:59:28.921Z,2.22
2023-03-18T10:02:27.573Z,2.35
2023-03-18T10:05:19.671Z,2.28
2023-03-18T10:08:19.570Z,2.50
2023-03-18T10:11:14.510Z,2.10
2023-03-18T10:14:24.756Z,2.50
2023-03-18T10:17:23.378Z,2.33
2023-03-18T10:20:20.066Z,2.28
2023-03-18T10:23:10.152Z,2.30
2023-03-18T10:26:01.490Z,2.42
2023-03-18T10:29:32.016Z,2.17
2023-03-18T10:32:21.248Z,2.20
2023-03-18T10:35:38.710Z,1.98
2023-03-18T10:38:38.227Z,1.88
2023-03-18T10:41:29.845Z,2.00
2023-03-18T10:44:21.184Z,2.40
2023-03-18T10:47:28.236Z,1.80
2023-03-18T10:50:22.101Z,2.63
2023-03-18T10:53:13.536Z,2.20
2023-03-18T10:56:10.580Z,2.38
2023-03-18T10:58:57.471Z,2.40
2023-03-18T11:01:49.911Z,2.20
2023-03-18T11:04:48.605Z,2.22
2023-03-18T11:07:33.926Z,2.20
2023-03-18T11:10:25.160Z,2.33
2023-03-18T11:13:17.495Z,2.17
2023-03-18T11:16:03.106Z,2.10
2023-03-18T11:18:51.351Z,3.35
2023-03-18T11:21:37.616Z,2.30
2023-03-18T11:24:39.544Z,2.72
2023-03-18T11:27:29.016Z,2.70
2023-03-18T11:30:34.005Z,2.05
2023-03-18T11:33:25.311Z,2.20
2023-03-18T11:36:20.851Z,2.10
2023-03-18T11:39:07.057Z,2.38
2023-03-18T11:41:53.052Z,2.10
2023-03-18T11:44:38.324Z,2.20
2023-03-18T11:47:30.719Z,2.17
2023-03-18T11:50:21.828Z,2.80
2023-03-18T11:53:19.709Z,2.40
2023-03-18T11:56:19.796Z,1.88
2023-03-18T11:59:12.836Z,1.60
2023-03-18T12:02:21.031Z,1.85
2023-03-18T12:05:42.178Z,1.90
2023-03-18T12:08:34.408Z,2.00
2023-03-18T12:11:44.628Z,2.33
2023-03-18T12:14:38.949Z,1.90
2023-03-18T12:17:41.492Z,1.75
2023-03-18T12:20:45.529Z,1.98
2023-03-18T12:23:53.656Z,1.75
2023-03-18T12:27:06.844Z,1.83
2023-03-18T12:29:59.256Z,2.10
2023-03-18T12:32:56.394Z,2.33
2023-03-18T12:36:04.271Z,1.92
2023-03-18T12:38:53.344Z,1.88
2023-03-18T12:42:01.298Z,1.92
2023-03-18T12:44:59.945Z,1.80
2023-03-18T12:48:08.303Z,1.90
2023-03-18T12:50:58.432Z,1.88
2023-03-18T12:53:52.550Z,1.80
2023-03-18T12:56:43.891Z,1.85
2023-03-18T12:59:29.245Z,1.50
2023-03-18T13:02:28.015Z,1.70
2023-03-18T13:05:36.839Z,1.83
2023-03-18T13:08:33.272Z,1.50
2023-03-18T13:11:18.677Z,1.80
2023-03-18T13:14:14.509Z,1.40
2023-03-18T13:17:00.783Z,1.45
2023-03-18T13:19:46.904Z,1.70
2023-03-18T13:22:46.090Z,1.30
2023-03-18T13:26:15.524Z,1.60
2023-03-18T13:29:17.054Z,1.60
2023-03-18T13:32:40.828Z,1.50
2023-03-18T13:35:50.703Z,1.65
2023-03-18T13:38:45.487Z,1.48
2023-03-18T13:42:03.947Z,1.30
2023-03-18T13:45:07.131Z,1.42
2023-03-18T13:47:59.164Z,1.58
2023-03-18T13:50:46.872Z,1.40
2023-03-18T13:53:38.289Z,1.23
2023-03-18T13:56:32.505Z,1.33
2023-03-18T13:59:38.153Z,1.20
2023-03-18T14:02:32.362Z,1.35
2023-03-18T14:08:44.353Z,1.20
2023-03-18T14:11:47.346Z,1.05
2023-03-18T14:14:57.015Z,1.15
2023-03-18T14:17:47.057Z,1.20
2023-03-18T14:20:41.965Z,1.42
2023-03-18T14:23:41.909Z,0.93
2023-03-18T14:26:27.734Z,1.02
2023-03-18T14:29:26.652Z,1.25
2023-03-18T14:32:31.172Z,1.10
2023-03-18T14:38:24.966Z,1.20
2023-03-18T14:41:30.409Z,1.10
2023-03-18T14:44:28.394Z,1.10
2023-03-18T14:47:38.163Z,1.20
2023-03-18T14:50:43.151Z,1.20
2023-03-18T14:53:50.805Z,1.17
2023-03-18T14:56:40.744Z,2.33
2023-03-18T14:59:26.433Z,1.50
2023-03-18T15:02:28.014Z,1.30
2023-03-18T15:05:18.009Z,1.23
2023-03-18T15:08:17.957Z,1.15
2023-03-18T15:11:06.512Z,1.58
2023-03-18T15:14:00.448Z,1.90
2023-03-18T15:16:50.861Z,2.10
2023-03-18T15:19:36.780Z,1.60
2023-03-18T15:22:28.347Z,1.50
2023-03-18T15:25:20.633Z,1.40
2023-03-18T15:28:06.841Z,2.28
2023-03-18T15:30:57.145Z,1.98
2023-03-18T15:33:43.076Z,2.33
2023-03-18T15:36:28.920Z,1.83
2023-03-18T15:39:22.170Z,1.70
2023-03-18T15:42:18.983Z,1.83
2023-03-18T15:45:05.396Z,1.60
2023-03-18T15:47:51.869Z,1.80
2023-03-18T15:50:37.431Z,1.63
2023-03-18T15:53:30.318Z,1.90
2023-03-18T15:56:29.697Z,3.17
2023-03-18T15:59:20.020Z,2.65
2023-03-18T16:02:15.971Z,2.03
2023-03-18T16:05:16.967Z,2.13
2023-03-18T16:08:02.665Z,2.78
2023-03-18T16:10:50.962Z,1.98
2023-03-18T16:13:37.232Z,2.10
2023-03-18T16:16:28.112Z,2.60
2023-03-18T16:19:28.290Z,1.85
2023-03-18T16:22:15.410Z,2.50
2023-03-18T16:25:01.202Z,1.92
2023-03-18T16:27:51.402Z,2.60
2023-03-18T16:30:40.201Z,2.17
2023-03-18T16:33:26.238Z,3.50
2023-03-18T16:36:22.998Z,2.33
2023-03-18T16:39:21.125Z,2.50
2023-03-18T16:42:09.165Z,3.35
2023-03-18T16:44:54.862Z,2.80
2023-03-18T16:47:41.593Z,3.38
2023-03-18T16:50:34.429Z,2.50
2023-03-18T16:53:29.750Z,3.95
2023-03-18T16:56:18.325Z,2.80
2023-03-18T16:59:03.687Z,2.60
2023-03-18T17:01:50.613Z,2.72
2023-03-18T17:04:36.330Z,3.72
2023-03-18T17:07:22.435Z,3.55
2023-03-18T17:10:09.276Z,3.70
2023-03-18T17:13:02.261Z,2.85
2023-03-18T17:15:47.816Z,2.80
2023-03-18T17:18:33.596Z,3.03
2023-03-18T17:21:19.278Z,3.30
2023-03-18T17:24:04.993Z,2.92
2023-03-18T17:26:51.845Z,3.15
2023-03-18T17:29:37.127Z,2.85
2023-03-18T17:32:22.694Z,3.30
2023-03-18T17:35:17.900Z,3.20
2023-03-18T17:38:03.654Z,3.08
2023-03-18T17:40:50.565Z,2.72
2023-03-18T17:43:36.777Z,3.05
2023-03-18T17:46:22.453Z,2.78
2023-03-18T17:49:11.967Z,2.90
2023-03-18T17:51:57.343Z,2.78
2023-03-18T17:54:42.705Z,2.65
2023-03-18T17:57:28.250Z,2.30
2023-03-18T18:00:21.384Z,2.17
2023-03-18T18:03:15.650Z,2.10
2023-03-18T18:06:01.248Z,2.30
2023-03-18T18:08:47.504Z,2.17
2023-03-18T18:11:38.893Z,2.58
2023-03-18T18:14:28.982Z,2.15
2023-03-18T18:17:15.986Z,2.25
2023-03-18T18:20:01.338Z,2.20
2023-03-18T18:22:51.245Z,2.83
2023-03-18T18:25:36.621Z,2.53
2023-03-18T18:28:27.098Z,2.63
2023-03-18T18:31:14.445Z,2.42
2023-03-18T18:33:59.758Z,2.20
2023-03-18T18:36:45.226Z,2.15
2023-03-18T18:39:30.947Z,2.20
2023-03-18T18:42:16.371Z,2.25
2023-03-18T18:45:01.932Z,2.50
2023-03-18T18:47:47.458Z,2.55
2023-03-18T18:50:34.749Z,2.72
2023-03-18T18:53:37.361Z,2.17
2023-03-18T18:56:36.577Z,2.40
2023-03-18T18:59:27.644Z,2.45
2023-03-18T19:02:29.732Z,2.60
2023-03-18T19:05:16.608Z,2.38
2023-03-18T19:08:03.847Z,2.70
2023-03-18T19:10:49.788Z,2.40
2023-03-18T19:13:37.687Z,2.60
2023-03-18T19:16:30.639Z,2.50
2023-03-18T19:19:18.893Z,2.78
2023-03-18T19:22:04.578Z,3.05
2023-03-18T19:24:50.276Z,3.10
2023-03-18T19:27:35.713Z,3.33
2023-03-18T19:30:23.814Z,2.78
2023-03-18T19:33:17.041Z,3.15
2023-03-18T19:36:08.666Z,3.15
2023-03-18T19:38:56.952Z,3.15
2023-03-18T19:41:43.481Z,3.15
2023-03-18T19:44:29.113Z,2.88
2023-03-18T19:47:27.256Z,2.80
2023-03-18T19:50:18.530Z,2.80
2023-03-18T19:53:10.977Z,3.15
2023-03-18T19:55:56.743Z,2.83
2023-03-18T19:58:42.717Z,2.70
2023-03-18T20:01:29.347Z,2.78
2023-03-18T20:04:16.720Z,2.85
2023-03-18T20:07:03.882Z,2.58
2023-03-18T20:09:49.801Z,2.65
2023-03-18T20:12:38.039Z,2.70
2023-03-18T20:15:27.154Z,2.55
2023-03-18T20:18:17.497Z,2.60
2023-03-18T20:21:03.505Z,2.92
2023-03-18T20:23:50.860Z,2.55
2023-03-18T20:26:36.973Z,3.22
2023-03-18T20:29:24.032Z,3.25
2023-03-18T20:32:09.557Z,3.17
2023-03-18T20:34:55.000Z,3.72
2023-03-18T20:37:40.437Z,4.30
2023-03-18T20:40:28.289Z,3.33
2023-03-18T20:43:18.604Z,3.10
2023-03-18T20:46:04.379Z,3.00
2023-03-18T20:48:49.939Z,3.63
2023-03-18T20:51:38.488Z,3.55
2023-03-18T20:54:30.000Z,3.10
2023-03-18T20:57:15.722Z,3.13
2023-03-18T21:00:01.119Z,3.22
2023-03-18T21:02:47.786Z,2.90
2023-03-18T21:05:33.449Z,3.20
2023-03-18T21:08:19.508Z,3.42
2023-03-18T21:11:05.305Z,3.67
2023-03-18T21:13:51.163Z,2.95
2023-03-18T21:16:38.050Z,3.50
2023-03-18T21:19:23.604Z,3.42
2023-03-18T21:22:13.782Z,3.40
2023-03-18T21:24:59.343Z,3.28
2023-03-18T21:27:44.929Z,3.28
2023-03-18T21:30:30.345Z,3.08
2023-03-18T21:33:22.933Z,3.30
2023-03-18T21:36:11.650Z,3.72
2023-03-18T21:38:57.300Z,3.28
2023-03-18T21:41:42.873Z,4.05
2023-03-18T21:44:28.320Z,3.28
2023-03-18T21:47:16.694Z,3.55
2023-03-18T21:50:01.968Z,4.07
2023-03-18T21:52:47.959Z,3.65
2023-03-18T21:55:33.445Z,4.45
2023-03-18T21:58:22.076Z,4.10
2023-03-18T22:01:15.674Z,4.03
2023-03-18T22:04:01.235Z,3.95
2023-03-18T22:06:46.612Z,3.75
2023-03-18T22:09:31.843Z,3.20
2023-03-18T22:12:25.069Z,4.30
2023-03-18T22:15:39.402Z,4.70
2023-03-18T22:18:24.752Z,4.20
2023-03-18T22:21:19.241Z,4.20
2023-03-18T22:24:05.318Z,3.90
2023-03-18T22:26:51.067Z,3.58
2023-03-18T22:29:36.289Z,4.03
2023-03-18T22:32:39.103Z,4.25
2023-03-18T22:35:27.205Z,4.05
2023-03-18T22:38:20.607Z,4.03
2023-03-18T22:41:06.119Z,3.38
2023-03-18T22:43:51.652Z,3.85
2023-03-18T22:46:37.292Z,3.95
2023-03-18T22:49:22.865Z,4.85
2023-03-18T22:52:15.369Z,3.72
2023-03-18T22:55:02.579Z,3.85
2023-03-18T22:57:49.124Z,3.63
2023-03-18T23:00:40.420Z,3.35
2023-03-18T23:03:38.807Z,3.35
2023-03-18T23:06:24.850Z,3.28
2023-03-18T23:09:10.125Z,3.72
2023-03-18T23:11:56.214Z,4.00
2023-03-18T23:14:41.737Z,3.50
2023-03-18T23:17:28.172Z,3.90
2023-03-18T23:20:16.773Z,3.70
2023-03-18T23:23:02.310Z,3.80
2023-03-18T23:25:48.864Z,4.15
2023-03-18T23:28:43.634Z,3.90
2023-03-18T23:31:29.754Z,3.92
2023-03-18T23:34:15.531Z,3.78
2023-03-18T23:37:01.470Z,4.20
2023-03-18T23:39:47.232Z,4.40
2023-03-18T23:42:32.721Z,3.83
2023-03-18T23:45:18.312Z,3.95
2023-03-18T23:48:04.185Z,3.58
2023-03-18T23:50:49.804Z,4.68
2023-03-18T23:53:35.849Z,3.80
2023-03-18T23:56:21.552Z,4.38
2023-03-18T23:59:06.888Z,4.00
